Time;durP1;ratioP1;P1;durP2;ratioP2;P2;SDS_P1;SDS_P2;PMS_P1;PMS_P2;Temp;Humidity;BMP_temperature;BMP_pressure;BME280_temperature;BME280_humidity;BME280_pressure;Samples;Min_cycle;Max_cycle;Signal;HPM_P1;HPM_P2
2024/01/16 00:00:44;;;;;;;6.60;2.15;;;;;;;8.87;49.89;100767.47;4985025;28;20105;-65
2024/01/16 00:03:10;;;;;;;14.60;3.92;;;;;;;8.88;49.95;100763.84;4985129;28;20450;-65
2024/01/16 00:05:35;;;;;;;4.65;2.25;;;;;;;8.83;49.71;100761.50;4983368;28;20035;-65
2024/01/16 00:08:01;;;;;;;6.45;2.88;;;;;;;8.84;49.97;100767.69;4983463;28;20117;-65
2024/01/16 00:10:27;;;;;;;6.47;3.33;;;;;;;8.85;49.87;100764.06;4985030;28;20483;-65
2024/01/16 00:12:52;;;;;;;8.20;3.20;;;;;;;8.86;50.17;100761.25;4962455;28;20050;-64
2024/01/16 00:15:18;;;;;;;7.25;2.28;;;;;;;8.90;50.08;100761.88;4972528;28;20157;-65
2024/01/16 00:17:43;;;;;;;8.32;2.25;;;;;;;8.89;49.30;100754.81;4984092;28;20039;-66
2024/01/16 00:20:09;;;;;;;12.40;2.67;;;;;;;8.94;49.95;100763.31;4979892;28;20121;-65
2024/01/16 00:22:34;;;;;;;11.65;2.47;;;;;;;8.94;49.85;100763.31;4975120;28;20038;-66
2024/01/16 00:25:00;;;;;;;6.05;2.30;;;;;;;8.92;49.39;100759.94;4973912;28;20561;-65
2024/01/16 00:27:26;;;;;;;5.45;2.15;;;;;;;8.94;49.46;100774.00;4973994;28;20035;-65
2024/01/16 00:29:51;;;;;;;10.00;2.45;;;;;;;8.94;49.87;100768.66;4973590;28;20062;-65
2024/01/16 00:32:18;;;;;;;7.57;2.40;;;;;;;8.90;49.73;100761.88;4973946;28;20067;-65
2024/01/16 00:34:43;;;;;;;8.43;2.15;;;;;;;8.93;49.42;100766.97;4957720;28;20507;-66
2024/01/16 00:37:09;;;;;;;5.20;2.13;;;;;;;8.94;49.90;100776.69;4973982;28;20039;-65
2024/01/16 00:39:34;;;;;;;5.05;2.28;;;;;;;8.93;49.89;100770.50;4974928;28;20054;-65
2024/01/16 00:42:01;;;;;;;3.97;1.88;;;;;;;8.94;49.43;100782.03;4974645;28;20406;-65
2024/01/16 00:44:27;;;;;;;10.68;2.30;;;;;;;8.94;49.44;100769.53;4973838;28;20414;-65
2024/01/16 00:46:53;;;;;;;12.77;3.03;;;;;;;8.98;49.58;100780.81;4973899;28;20043;-66
2024/01/16 00:49:18;;;;;;;2.95;2.17;;;;;;;9.01;49.87;100780.59;4975319;28;20407;-65
2024/01/16 00:51:44;;;;;;;6.38;1.90;;;;;;;9.03;49.48;100781.31;4973654;28;20062;-65
2024/01/16 00:54:09;;;;;;;5.72;1.60;;;;;;;8.98;49.18;100776.34;4973663;28;20121;-65
2024/01/16 00:56:36;;;;;;;6.97;2.55;;;;;;;9.04;49.99;100783.88;4975138;28;20042;-66
2024/01/16 00:59:01;;;;;;;3.70;1.85;;;;;;;8.99;49.58;100782.53;4978862;28;20035;-65
2024/01/16 01:01:27;;;;;;;4.40;2.53;;;;;;;9.02;49.80;100792.94;4977400;28;20121;-65
2024/01/16 01:03:53;;;;;;;6.13;2.38;;;;;;;9.00;49.48;100789.56;4978694;28;20063;-65
2024/01/16 01:06:18;;;;;;;5.78;1.95;;;;;;;9.03;49.50;100795.53;4977369;28;20034;-65
2024/01/16 01:08:44;;;;;;;7.47;2.53;;;;;;;9.06;49.75;100795.28;4977333;28;20495;-66
2024/01/16 01:11:09;;;;;;;5.07;1.92;;;;;;;9.07;49.56;100791.63;4977364;28;20039;-65
2024/01/16 01:13:34;;;;;;;4.70;2.55;;;;;;;9.07;49.17;100796.97;4977130;28;20538;-65
2024/01/16 01:16:00;;;;;;;5.88;2.00;;;;;;;9.08;49.32;100797.81;4977060;28;20049;-65
2024/01/16 01:18:26;;;;;;;5.45;2.22;;;;;;;9.07;49.56;100793.47;4977021;28;20038;-66
2024/01/16 01:20:51;;;;;;;5.05;1.90;;;;;;;9.08;49.40;100804.03;4978319;28;20034;-66
2024/01/16 01:23:17;;;;;;;6.07;2.35;;;;;;;9.07;49.39;100801.47;4977292;28;20490;-65
2024/01/16 01:25:42;;;;;;;6.38;2.60;;;;;;;9.03;49.63;100808.03;4976946;28;20058;-66
2024/01/16 01:28:08;;;;;;;11.50;2.70;;;;;;;8.98;49.55;100808.41;4976904;28;20038;-65
2024/01/16 01:30:34;;;;;;;6.70;2.70;;;;;;;9.01;49.39;100809.97;4976867;28;20411;-65
2024/01/16 01:32:59;;;;;;;9.48;2.97;;;;;;;9.01;49.52;100807.31;4977199;28;20101;-65
2024/01/16 01:35:24;;;;;;;8.32;3.42;;;;;;;9.01;49.70;100818.00;4976678;28;20046;-65
2024/01/16 01:37:50;;;;;;;4.35;2.00;;;;;;;8.98;49.19;100813.75;4978015;28;20494;-65
2024/01/16 01:40:15;;;;;;;10.85;2.67;;;;;;;8.98;49.50;100818.22;4976778;28;20031;-65
2024/01/16 01:42:44;;;;;;;11.43;2.88;;;;;;;8.98;49.41;100819.06;4978360;28;20494;-67
2024/01/16 01:45:10;;;;;;;7.97;2.67;;;;;;;8.99;49.66;100823.44;4976573;28;20426;-65
2024/01/16 01:47:37;;;;;;;8.75;3.00;;;;;;;9.00;49.61;100816.28;4976460;28;20039;-65
2024/01/16 01:50:06;;;;;;;5.80;2.63;;;;;;;8.99;49.58;100825.28;4978043;28;20513;-66
2024/01/16 01:52:32;;;;;;;4.60;2.35;;;;;;;8.97;49.09;100827.19;4976380;28;20062;-65
2024/01/16 01:54:57;;;;;;;6.32;1.92;;;;;;;8.94;49.56;100827.44;4977406;28;20039;-65
2024/01/16 01:57:24;;;;;;;4.13;2.30;;;;;;;8.83;49.80;100822.06;4976083;28;20054;-65
2024/01/16 01:59:50;;;;;;;8.80;2.83;;;;;;;8.82;49.76;100831.06;4976596;28;20494;-65
2024/01/16 02:02:16;;;;;;;7.38;2.00;;;;;;;8.79;49.66;100835.66;4960262;28;20055;-65
2024/01/16 02:04:43;;;;;;;9.00;2.55;;;;;;;8.82;49.50;100834.59;4976097;28;20561;-65
2024/01/16 02:07:09;;;;;;;7.80;2.60;;;;;;;8.78;49.63;100833.97;4976604;28;20038;-65
2024/01/16 02:09:35;;;;;;;6.03;2.28;;;;;;;8.81;49.81;100837.38;4959845;28;20039;-66
2024/01/16 02:12:01;;;;;;;7.45;2.10;;;;;;;8.82;49.41;100842.59;4976861;28;20126;-65
2024/01/16 02:14:26;;;;;;;3.67;2.13;;;;;;;8.78;49.35;100838.47;4977665;28;20042;-65
2024/01/16 02:16:51;;;;;;;6.25;2.33;;;;;;;8.77;49.50;100842.94;4977376;28;20034;-65
2024/01/16 02:19:17;;;;;;;9.90;2.42;;;;;;;8.76;49.83;100835.91;4977326;28;20039;-66
2024/01/16 02:21:48;;;;;;;5.60;2.80;;;;;;;8.77;50.07;100845.59;4976977;28;20034;-65
2024/01/16 02:24:15;;;;;;;5.38;2.60;;;;;;;8.76;49.52;100835.91;4976318;28;20046;-65
2024/01/16 02:26:41;;;;;;;6.47;2.42;;;;;;;8.76;49.55;100835.91;4976302;28;20038;-65
2024/01/16 02:29:07;;;;;;;7.18;2.50;;;;;;;8.76;50.03;100829.72;4978079;28;20045;-65
2024/01/16 02:31:33;;;;;;;4.93;2.80;;;;;;;8.77;49.33;100832.25;4976046;28;20114;-66
2024/01/16 02:33:58;;;;;;;11.30;2.92;;;;;;;8.77;49.79;100837.59;4976974;28;20039;-66
2024/01/16 02:36:24;;;;;;;11.65;3.45;;;;;;;8.76;50.14;100833.25;4975726;28;20126;-65
2024/01/16 02:38:50;;;;;;;7.43;2.65;;;;;;;8.81;49.65;100834.69;4976963;28;20062;-67
2024/01/16 02:41:16;;;;;;;12.85;3.42;;;;;;;8.82;49.45;100836.41;4975739;28;20479;-66
2024/01/16 02:43:42;;;;;;;6.93;2.47;;;;;;;8.82;49.39;100833.75;4975490;28;20042;-66
2024/01/16 02:46:08;;;;;;;7.63;2.70;;;;;;;8.86;49.78;100837.84;4975575;28;20035;-65
2024/01/16 02:48:37;;;;;;;3.22;2.53;;;;;;;8.87;49.71;100837.75;4975744;28;20490;-66
2024/01/16 02:51:06;;;;;;;3.88;3.10;;;;;;;8.86;50.08;100824.50;4975460;28;20189;-66
2024/01/16 02:53:31;;;;;;;4.43;2.47;;;;;;;8.87;49.15;100826.22;4975352;28;20070;-65
2024/01/16 02:55:58;;;;;;;9.30;2.60;;;;;;;8.90;49.53;100824.16;4976696;28;20133;-65
2024/01/16 02:58:24;;;;;;;8.15;3.13;;;;;;;8.89;49.64;100818.94;4976551;28;20035;-66
2024/01/16 03:00:51;;;;;;;12.68;2.40;;;;;;;8.90;49.44;100820.66;4976530;28;20050;-65
2024/01/16 03:03:17;;;;;;;9.25;2.88;;;;;;;8.92;49.55;100813.34;4975380;28;20043;-65
2024/01/16 03:05:42;;;;;;;7.47;2.13;;;;;;;8.91;49.10;100816.97;4975224;28;20035;-65
2024/01/16 03:08:07;;;;;;;8.02;2.67;;;;;;;8.90;49.62;100807.28;4959199;28;20038;-65
2024/01/16 03:10:33;;;;;;;12.02;3.40;;;;;;;8.93;49.34;100817.75;4957910;28;20035;-66
2024/01/16 03:12:59;;;;;;;14.63;2.00;;;;;;;8.88;49.08;100814.56;4957884;28;20073;-65
2024/01/16 03:15:24;;;;;;;5.93;2.60;;;;;;;8.88;49.33;100812.72;4976047;28;20513;-66
2024/01/16 03:17:50;;;;;;;11.82;2.67;;;;;;;8.87;48.86;100804.84;4976251;28;20043;-65
2024/01/16 03:20:16;;;;;;;2.70;1.88;;;;;;;8.88;49.51;100812.72;4974364;28;20061;-65
2024/01/16 03:22:42;;;;;;;4.35;1.85;;;;;;;8.88;49.91;100812.72;4974072;28;20117;-65
2024/01/16 03:25:08;;;;;;;12.38;2.38;;;;;;;8.89;49.30;100810.91;4959045;28;20490;-65
2024/01/16 03:27:34;;;;;;;12.43;1.85;;;;;;;8.85;49.36;100804.94;4958801;28;20062;-65
2024/01/16 03:30:01;;;;;;;5.13;2.15;;;;;;;8.83;49.67;100792.69;4974893;28;20031;-65
2024/01/16 03:32:27;;;;;;;14.20;2.65;;;;;;;8.87;49.29;100804.84;4974903;28;20063;-65
2024/01/16 03:34:52;;;;;;;9.13;2.60;;;;;;;8.89;48.74;100797.56;4976015;28;20069;-66
2024/01/16 03:37:17;;;;;;;16.23;3.08;;;;;;;8.89;49.06;100797.56;4974827;28;20046;-65
2024/01/16 03:39:44;;;;;;;8.63;2.55;;;;;;;8.90;49.42;100800.13;4975673;28;20062;-65
2024/01/16 03:42:10;;;;;;;13.52;2.97;;;;;;;8.92;49.61;100802.66;4974560;28;20097;-65
2024/01/16 03:44:40;;;;;;;3.38;2.00;;;;;;;8.91;48.72;100800.94;4974730;28;20046;-66
2024/01/16 03:47:06;;;;;;;5.70;2.00;;;;;;;8.92;49.73;100803.53;4974411;28;20031;-65
2024/01/16 03:49:32;;;;;;;6.43;2.47;;;;;;;8.93;48.88;100799.91;4974275;28;20121;-65
2024/01/16 03:51:58;;;;;;;7.30;2.83;;;;;;;8.92;48.44;100798.19;4974165;28;20065;-65
2024/01/16 03:54:23;;;;;;;6.18;2.35;;;;;;;8.92;48.47;100790.16;4974288;28;20026;-65
2024/01/16 03:56:48;;;;;;;7.40;2.30;;;;;;;8.92;48.47;100794.66;4957706;28;20063;-67
2024/01/16 03:59:14;;;;;;;5.85;2.40;;;;;;;8.89;48.27;100786.88;4975524;28;20027;-67
2024/01/16 04:01:39;;;;;;;12.10;2.83;;;;;;;8.85;47.93;100785.44;4974109;28;20026;-66
2024/01/16 04:04:07;;;;;;;3.85;1.92;;;;;;;8.84;48.01;100781.91;4975062;28;20022;-66
2024/01/16 04:06:32;;;;;;;8.55;2.58;;;;;;;8.79;48.37;100782.25;4974210;28;20547;-66
2024/01/16 04:08:58;;;;;;;5.47;2.33;;;;;;;8.78;48.58;100785.91;4975336;28;20022;-65
2024/01/16 04:11:23;;;;;;;10.65;2.63;;;;;;;8.77;48.86;100778.84;4975435;28;20493;-65
2024/01/16 04:13:49;;;;;;;8.13;2.10;;;;;;;8.75;48.52;100779.94;4974308;28;20023;-66
2024/01/16 04:16:15;;;;;;;5.13;2.40;;;;;;;8.72;48.48;100775.69;4975531;28;20428;-71
2024/01/16 04:18:42;;;;;;;5.57;2.60;;;;;;;8.74;48.30;100779.09;4974449;28;20057;-71
2024/01/16 04:21:07;;;;;;;6.90;2.00;;;;;;;8.69;47.82;100781.28;4974265;28;20026;-72
2024/01/16 04:23:33;;;;;;;8.35;2.22;;;;;;;8.66;47.91;100778.84;4974444;28;20054;-72
2024/01/16 04:25:58;;;;;;;6.07;2.08;;;;;;;8.62;48.14;100785.38;4958361;28;20077;-71
2024/01/16 04:28:24;;;;;;;8.98;3.00;;;;;;;8.59;47.87;100779.44;4958363;28;20073;-71
2024/01/16 04:30:49;;;;;;;7.28;2.92;;;;;;;8.54;47.87;100776.28;4974592;28;20014;-71
2024/01/16 04:33:14;;;;;;;4.00;2.35;;;;;;;8.52;48.20;100779.03;4975681;28;20034;-71
2024/01/16 04:35:40;;;;;;;5.43;2.33;;;;;;;8.46;48.10;100776.84;4974448;28;20031;-72
2024/01/16 04:38:05;;;;;;;9.43;2.95;;;;;;;8.44;48.06;100770.78;4967295;28;20018;-71
2024/01/16 04:40:30;;;;;;;10.05;2.50;;;;;;;8.42;48.50;100770.03;4994561;28;20418;-71
2024/01/16 04:42:56;;;;;;;9.25;2.47;;;;;;;8.38;47.56;100775.72;4994497;28;20026;-72
2024/01/16 04:45:22;;;;;;;7.75;2.47;;;;;;;8.34;48.26;100764.44;4994415;28;20022;-71
2024/01/16 04:47:47;;;;;;;10.93;2.63;;;;;;;8.34;48.46;100768.94;4994832;28;20026;-71
2024/01/16 04:50:12;;;;;;;5.32;2.38;;;;;;;8.28;47.75;100764.91;4977207;28;20033;-71
2024/01/16 04:52:38;;;;;;;10.48;2.70;;;;;;;8.28;47.60;100774.72;4994570;28;20061;-71
2024/01/16 04:55:04;;;;;;;4.10;1.55;;;;;;;8.24;47.68;100768.72;4993445;28;20029;-71
2024/01/16 04:57:29;;;;;;;14.85;2.90;;;;;;;8.23;48.00;100778.53;4993721;28;20503;-71
2024/01/16 04:59:55;;;;;;;7.95;2.40;;;;;;;8.19;47.73;100774.41;4995206;28;20086;-71
2024/01/16 05:02:21;;;;;;;15.80;2.20;;;;;;;8.18;46.83;100775.38;4993492;28;20019;-71
2024/01/16 05:04:49;;;;;;;6.57;1.70;;;;;;;8.12;47.30;100772.34;4994339;28;20038;-71
2024/01/16 05:07:15;;;;;;;8.07;2.22;;;;;;;8.06;47.39;100770.97;4993602;28;20113;-71
2024/01/16 05:09:40;;;;;;;4.65;2.25;;;;;;;8.05;47.67;100773.75;4994620;28;20491;-71
2024/01/16 05:12:07;;;;;;;4.22;2.47;;;;;;;7.99;47.88;100759.06;4993838;28;20386;-71
2024/01/16 05:14:32;;;;;;;2.92;1.52;;;;;;;7.96;47.97;100766.41;4993523;28;20088;-71
2024/01/16 05:16:58;;;;;;;13.13;2.08;;;;;;;7.92;47.29;100757.81;4993354;28;20551;-71
2024/01/16 05:19:23;;;;;;;12.05;2.60;;;;;;;7.90;47.27;100754.41;4977313;28;20034;-71
2024/01/16 05:21:48;;;;;;;6.85;1.70;;;;;;;7.89;47.28;100757.19;4993839;28;20031;-71
2024/01/16 05:24:14;;;;;;;14.70;1.95;;;;;;;7.90;47.16;100758.91;4993556;28;20513;-71
2024/01/16 05:26:39;;;;;;;13.65;2.08;;;;;;;7.86;47.32;100755.59;4994587;28;20518;-64
2024/01/16 05:29:04;;;;;;;1.80;1.20;;;;;;;7.86;47.47;100752.94;4992536;28;20410;-65
2024/01/16 05:31:30;;;;;;;4.47;1.90;;;;;;;7.84;47.30;100760.22;4992707;28;20034;-65
2024/01/16 05:33:57;;;;;;;4.55;1.65;;;;;;;7.85;47.55;100761.88;4993999;28;20058;-65
2024/01/16 05:36:24;;;;;;;8.63;2.42;;;;;;;7.85;47.07;100750.38;4994097;28;20036;-65
2024/01/16 05:38:53;;;;;;;4.78;1.92;;;;;;;7.86;48.24;100754.75;4992782;28;20108;-67
2024/01/16 05:41:18;;;;;;;4.20;1.73;;;;;;;7.85;47.14;100740.56;4992890;28;20097;-65
2024/01/16 05:43:43;;;;;;;5.55;1.52;;;;;;;7.84;47.59;100741.53;4976732;28;20117;-66
2024/01/16 05:46:10;;;;;;;6.63;1.80;;;;;;;7.86;47.44;100746.75;4965704;28;20026;-65
2024/01/16 05:48:35;;;;;;;9.32;1.60;;;;;;;7.88;47.90;100744.81;4980077;28;20030;-65
2024/01/16 05:51:02;;;;;;;8.35;2.00;;;;;;;7.87;47.61;100743.13;4997527;28;20593;-65
2024/01/16 05:53:28;;;;;;;7.85;1.70;;;;;;;7.87;47.49;100743.13;4996718;28;20034;-64
2024/01/16 05:55:54;;;;;;;10.80;2.08;;;;;;;7.83;47.42;100731.84;4996396;28;20525;-65
2024/01/16 05:58:19;;;;;;;5.90;1.40;;;;;;;7.85;47.97;100745.03;4995284;28;20497;-65
2024/01/16 06:00:45;;;;;;;7.30;1.73;;;;;;;7.83;47.17;100738.97;4995116;28;20043;-65
2024/01/16 06:03:10;;;;;;;4.18;1.65;;;;;;;7.83;46.82;100733.63;4996353;28;20073;-65
2024/01/16 06:05:35;;;;;;;9.02;2.25;;;;;;;7.82;47.19;100730.13;4994961;28;20407;-64
2024/01/16 06:08:01;;;;;;;7.78;2.42;;;;;;;7.82;46.71;100739.94;4978736;28;20034;-65
2024/01/16 06:10:27;;;;;;;7.80;2.50;;;;;;;7.82;47.32;100735.44;4995020;28;20069;-65
2024/01/16 06:12:52;;;;;;;7.45;2.17;;;;;;;7.83;47.10;100741.63;4995113;28;20038;-65
2024/01/16 06:15:17;;;;;;;12.18;2.35;;;;;;;7.85;46.72;100745.03;4996465;28;20035;-65
2024/01/16 06:17:43;;;;;;;4.53;2.05;;;;;;;7.84;46.92;100754.88;4995789;28;20498;-65
2024/01/16 06:20:09;;;;;;;10.13;2.50;;;;;;;7.84;47.33;100748.69;4978495;28;20030;-65
2024/01/16 06:22:34;;;;;;;5.70;2.55;;;;;;;7.83;46.74;100758.50;4978567;28;20038;-64
2024/01/16 06:24:59;;;;;;;9.25;3.22;;;;;;;7.80;46.77;100757.84;4996153;28;20031;-65
2024/01/16 06:27:25;;;;;;;7.00;1.80;;;;;;;7.74;46.92;100748.50;4994402;28;20076;-65
2024/01/16 06:29:51;;;;;;;3.42;1.80;;;;;;;7.76;47.19;100751.06;4994578;28;20037;-65
2024/01/16 06:32:16;;;;;;;14.40;1.88;;;;;;;7.73;47.44;100757.47;4994472;28;20230;-65
2024/01/16 06:34:42;;;;;;;8.18;2.00;;;;;;;7.70;46.61;100754.19;4994461;28;20042;-65
2024/01/16 06:37:08;;;;;;;9.82;1.73;;;;;;;7.71;47.37;100753.19;4996130;28;20501;-67
2024/01/16 06:39:34;;;;;;;12.40;2.38;;;;;;;7.70;46.40;100751.53;4994888;28;20045;-65
2024/01/16 06:41:59;;;;;;;5.57;1.85;;;;;;;7.70;47.62;100759.50;4996252;28;20038;-65
2024/01/16 06:44:25;;;;;;;5.07;1.88;;;;;;;7.68;46.63;100753.44;4994702;28;20517;-64
2024/01/16 06:46:50;;;;;;;4.75;2.10;;;;;;;7.65;46.69;100748.34;4994372;28;20058;-68
2024/01/16 06:49:15;;;;;;;9.45;2.25;;;;;;;7.63;46.56;100754.63;4994627;28;20034;-67
2024/01/16 06:51:41;;;;;;;7.82;2.28;;;;;;;7.61;46.71;100761.03;4977871;28;20093;-67
2024/01/16 06:54:06;;;;;;;4.15;1.52;;;;;;;7.58;46.35;100759.44;4976927;28;20034;-68
2024/01/16 06:56:32;;;;;;;5.43;2.20;;;;;;;7.53;46.91;100758.94;4994016;28;20582;-68
2024/01/16 06:58:57;;;;;;;4.28;1.83;;;;;;;7.50;46.73;100759.16;4994070;28;20030;-68
2024/01/16 07:01:23;;;;;;;6.50;2.70;;;;;;;7.46;46.86;100760.34;4994023;28;20060;-67
2024/01/16 07:03:48;;;;;;;6.47;2.60;;;;;;;7.46;47.06;100765.66;4993916;28;20109;-68
2024/01/16 07:06:14;;;;;;;6.43;2.10;;;;;;;7.43;47.15;100768.53;4994023;28;20101;-68
2024/01/16 07:08:39;;;;;;;5.22;2.03;;;;;;;7.44;47.29;100775.59;4996125;28;20029;-68
2024/01/16 07:11:07;;;;;;;6.63;2.95;;;;;;;7.42;46.54;100774.00;4995788;28;20046;-67
2024/01/16 07:13:34;;;;;;;8.63;3.13;;;;;;;7.38;46.24;100777.84;4995197;28;20032;-68
2024/01/16 07:15:59;;;;;;;7.20;1.98;;;;;;;7.35;46.63;100781.56;4993994;28;20133;-67
2024/01/16 07:18:24;;;;;;;5.07;2.45;;;;;;;7.37;46.01;100787.63;4993751;28;20541;-68
2024/01/16 07:20:50;;;;;;;7.75;2.70;;;;;;;7.35;46.85;100786.91;4993532;28;20545;-68
2024/01/16 07:23:15;;;;;;;8.65;3.85;;;;;;;7.31;46.43;100779.25;4993936;28;20027;-68
2024/01/16 07:25:41;;;;;;;9.38;2.50;;;;;;;7.32;47.01;100786.25;4993576;28;20517;-68
2024/01/16 07:28:06;;;;;;;7.63;2.45;;;;;;;7.28;47.10;100782.13;4977535;28;20410;-68
2024/01/16 07:30:31;;;;;;;6.00;3.78;;;;;;;7.32;47.20;100781.78;4977123;28;20113;-67
2024/01/16 07:32:57;;;;;;;8.15;3.80;;;;;;;7.32;46.17;100783.59;4994890;28;20027;-68
2024/01/16 07:35:22;;;;;;;12.18;2.97;;;;;;;7.33;47.41;100783.50;4994604;28;20065;-67
2024/01/16 07:37:47;;;;;;;13.05;3.03;;;;;;;7.33;46.13;100786.16;4994410;28;20034;-67
2024/01/16 07:40:13;;;;;;;10.48;3.10;;;;;;;7.35;46.75;100796.69;4992239;28;20034;-67
2024/01/16 07:42:38;;;;;;;6.60;3.00;;;;;;;7.35;46.70;100789.56;4993297;28;20027;-68
2024/01/16 07:45:04;;;;;;;9.27;3.33;;;;;;;7.35;46.63;100794.03;4994512;28;20043;-67
2024/01/16 07:47:33;;;;;;;5.78;2.85;;;;;;;7.32;47.18;100783.59;4993313;28;20050;-67
2024/01/16 07:49:59;;;;;;;6.20;2.70;;;;;;;7.36;47.25;100785.94;4993103;28;20132;-68
2024/01/16 07:52:25;;;;;;;7.45;2.83;;;;;;;7.35;47.09;100784.22;4993042;28;20045;-67
2024/01/16 07:54:50;;;;;;;6.85;3.22;;;;;;;7.41;46.54;100798.94;4992884;28;20031;-68
2024/01/16 07:57:16;;;;;;;11.63;2.85;;;;;;;7.39;46.89;100796.38;4976419;28;20085;-67
2024/01/16 07:59:41;;;;;;;6.07;2.67;;;;;;;7.40;45.86;100783.88;4994270;28;20405;-67
2024/01/16 08:02:06;;;;;;;8.18;3.10;;;;;;;7.41;47.01;100781.13;4976560;28;20073;-68
2024/01/16 08:04:32;;;;;;;4.00;2.20;;;;;;;7.43;46.56;100786.34;4992505;28;20045;-67
2024/01/16 08:06:57;;;;;;;13.82;2.72;;;;;;;7.44;46.04;100783.59;4992528;28;20042;-68
2024/01/16 08:09:23;;;;;;;8.45;2.40;;;;;;;7.45;46.19;100789.78;4994195;28;20513;-66
2024/01/16 08:11:48;;;;;;;6.13;2.83;;;;;;;7.50;46.38;100804.47;4994058;28;20038;-68
2024/01/16 08:14:13;;;;;;;6.05;2.78;;;;;;;7.54;46.33;100805.94;4993923;28;20486;-68
2024/01/16 08:16:39;;;;;;;4.78;2.45;;;;;;;7.56;46.51;100806.69;4992752;28;20069;-67
2024/01/16 08:19:04;;;;;;;5.47;2.25;;;;;;;7.59;46.10;100809.09;4992561;28;20034;-68
2024/01/16 08:21:29;;;;;;;7.80;3.13;;;;;;;7.69;46.66;100813.78;4992300;28;20474;-67
2024/01/16 08:23:55;;;;;;;4.95;2.45;;;;;;;7.75;46.98;100814.19;4992688;28;20035;-67
2024/01/16 08:26:20;;;;;;;9.68;2.80;;;;;;;7.78;45.86;100808.66;4992647;28;20038;-67
2024/01/16 08:28:46;;;;;;;6.82;2.92;;;;;;;7.85;45.82;100809.88;4992157;28;20038;-67
2024/01/16 08:31:11;;;;;;;10.70;3.10;;;;;;;7.93;46.53;100811.97;4973234;28;20105;-68
2024/01/16 08:33:37;;;;;;;16.15;3.28;;;;;;;8.00;46.29;100807.91;4983604;28;20076;-67
2024/01/16 08:36:04;;;;;;;7.30;2.63;;;;;;;7.98;46.41;100801.84;4992321;28;20042;-67
2024/01/16 08:38:29;;;;;;;13.50;3.90;;;;;;;8.02;45.72;100806.84;4992527;28;20034;-67
2024/01/16 08:40:55;;;;;;;10.75;3.08;;;;;;;8.03;46.26;100799.69;4992222;28;20049;-68
2024/01/16 08:43:20;;;;;;;8.73;2.33;;;;;;;8.04;45.81;100806.72;4993561;28;20498;-68
2024/01/16 08:45:47;;;;;;;8.93;2.95;;;;;;;8.03;45.57;100808.53;4993612;28;20038;-68
2024/01/16 08:48:14;;;;;;;9.43;2.70;;;;;;;8.04;46.07;100812.91;4976398;28;20038;-68
2024/01/16 08:50:40;;;;;;;9.38;2.92;;;;;;;8.06;46.51;100812.78;4993790;28;20041;-67
2024/01/16 08:53:06;;;;;;;7.68;3.05;;;;;;;8.07;45.68;100809.16;4992263;28;20117;-67
2024/01/16 08:55:32;;;;;;;11.93;2.42;;;;;;;8.07;45.42;100827.81;4993454;28;20101;-67
2024/01/16 08:57:57;;;;;;;6.07;2.92;;;;;;;8.08;45.52;100821.53;4975615;28;20046;-67
2024/01/16 09:00:22;;;;;;;8.27;2.30;;;;;;;8.09;45.47;100807.25;4992308;28;20386;-68
2024/01/16 09:02:48;;;;;;;10.98;2.35;;;;;;;8.10;45.70;100820.44;4993388;28;20035;-67
2024/01/16 09:05:14;;;;;;;9.90;2.97;;;;;;;8.11;45.59;100819.50;4992329;28;20038;-68
2024/01/16 09:07:40;;;;;;;6.68;2.85;;;;;;;8.15;46.08;100812.13;4992467;28;20042;-68
2024/01/16 09:10:06;;;;;;;9.93;3.13;;;;;;;8.13;45.29;100812.22;4992291;28;20113;-67
2024/01/16 09:12:33;;;;;;;7.97;2.30;;;;;;;8.17;45.34;100818.19;4976138;28;20160;-67
2024/01/16 09:14:58;;;;;;;5.75;2.92;;;;;;;8.17;45.64;100816.38;4975952;28;20031;-68
2024/01/16 09:17:25;;;;;;;7.03;3.10;;;;;;;8.21;45.19;100816.97;4994739;28;20080;-68
2024/01/16 09:19:51;;;;;;;6.13;2.78;;;;;;;8.23;45.97;100807.06;4997260;28;20039;-68
2024/01/16 09:22:16;;;;;;;13.40;2.92;;;;;;;8.25;45.72;100814.94;4995869;28;20077;-68
2024/01/16 09:24:42;;;;;;;11.98;2.47;;;;;;;8.24;46.19;100806.06;4995693;28;20053;-68
2024/01/16 09:27:09;;;;;;;16.05;3.13;;;;;;;8.26;45.75;100816.66;4995752;28;20494;-68
2024/01/16 09:29:35;;;;;;;10.77;2.83;;;;;;;8.25;46.16;100821.13;4995797;28;20043;-67
2024/01/16 09:32:00;;;;;;;9.10;3.10;;;;;;;8.30;45.49;100832.34;4997021;28;20034;-67
2024/01/16 09:34:25;;;;;;;4.35;2.40;;;;;;;8.30;45.26;100810.13;4997087;28;20042;-68
2024/01/16 09:36:51;;;;;;;10.48;3.05;;;;;;;8.31;45.84;100804.69;4995908;28;20065;-68
2024/01/16 09:39:16;;;;;;;8.85;2.33;;;;;;;8.33;45.71;100808.09;4996014;28;20383;-67
2024/01/16 09:41:42;;;;;;;7.82;2.58;;;;;;;8.33;46.13;100794.75;4995530;28;20041;-68
2024/01/16 09:44:08;;;;;;;8.43;2.67;;;;;;;8.42;45.71;100798.53;4995711;28;20042;-68
2024/01/16 09:46:34;;;;;;;10.88;3.22;;;;;;;8.47;45.46;100794.56;4995773;28;20057;-68
2024/01/16 09:49:00;;;;;;;5.85;2.78;;;;;;;8.53;45.01;100790.56;4979093;28;20066;-68
2024/01/16 09:51:25;;;;;;;9.48;3.05;;;;;;;8.60;45.14;100792.66;4979391;28;20101;-68
2024/01/16 09:53:51;;;;;;;14.30;3.03;;;;;;;8.62;45.64;100774.72;4995073;28;20038;-68
2024/01/16 09:56:21;;;;;;;4.80;2.13;;;;;;;8.68;45.55;100776.88;4978722;28;20517;-68
2024/01/16 09:58:48;;;;;;;10.20;2.83;;;;;;;8.69;45.44;100783.94;4996271;28;20035;-68
2024/01/16 10:01:15;;;;;;;8.80;3.33;;;;;;;8.66;45.07;100776.16;4995196;28;20042;-68
2024/01/16 10:03:44;;;;;;;8.23;3.35;;;;;;;8.58;45.19;100767.03;4995015;28;20034;-68
2024/01/16 10:06:09;;;;;;;7.95;3.15;;;;;;;8.57;44.84;100766.19;4995253;28;20038;-68
2024/01/16 10:08:35;;;;;;;6.60;2.33;;;;;;;8.56;45.39;100769.84;4979038;28;20058;-68
2024/01/16 10:11:00;;;;;;;12.27;2.42;;;;;;;8.58;45.03;100759.88;4994769;28;20104;-68
2024/01/16 10:13:26;;;;;;;6.65;2.55;;;;;;;8.64;45.13;100772.78;4994887;28;20061;-68
2024/01/16 10:15:52;;;;;;;9.75;2.78;;;;;;;8.84;44.61;100763.22;4994999;28;20038;-68
2024/01/16 10:18:32;;;;;;;8.05;2.35;;;;;;;9.07;44.51;100764.09;4978791;28;20037;-68
2024/01/16 10:20:57;;;;;;;5.60;3.05;;;;;;;9.25;45.05;100757.25;4976730;28;20505;-68
2024/01/16 10:23:26;;;;;;;12.63;3.35;;;;;;;9.48;44.56;100763.44;4994736;28;20036;-67
2024/01/16 10:26:24;;;;;;;11.10;2.42;;;;;;;9.71;44.57;100749.91;4978522;28;20030;-66
2024/01/16 10:28:50;;;;;;;5.68;2.72;;;;;;;9.90;44.43;100750.09;4983764;28;20136;-68
2024/01/16 10:31:15;;;;;;;10.13;2.95;;;;;;;10.09;44.41;100746.72;4994517;28;20125;-68
2024/01/16 10:33:40;;;;;;;9.82;2.63;;;;;;;10.28;44.47;100746.91;4994744;28;20035;-69
2024/01/16 10:36:14;;;;;;;9.90;2.95;;;;;;;10.44;44.36;100738.44;4994474;28;20084;-69
2024/01/16 10:38:41;;;;;;;10.60;2.67;;;;;;;10.60;43.64;100730.78;4995753;28;20030;-68
2024/01/16 10:41:15;;;;;;;9.55;2.45;;;;;;;10.79;43.49;100738.06;4978373;28;20534;-69
2024/01/16 10:43:41;;;;;;;8.15;3.00;;;;;;;10.96;43.95;100740.16;4996880;28;20030;-68
2024/01/16 10:46:12;;;;;;;7.35;2.45;;;;;;;11.14;44.52;100743.06;4994205;28;20430;-69
2024/01/16 10:48:39;;;;;;;8.07;2.95;;;;;;;11.26;43.61;100742.81;4995540;28;20038;-69
2024/01/16 10:51:06;;;;;;;8.13;2.53;;;;;;;11.36;43.86;100732.13;4996062;28;20041;-69
2024/01/16 10:53:33;;;;;;;6.70;2.67;;;;;;;11.37;43.84;100733.81;4994811;28;20641;-68
2024/01/16 10:56:00;;;;;;;7.47;3.08;;;;;;;11.44;43.48;100737.66;4978007;28;20163;-69
2024/01/16 10:58:26;;;;;;;7.15;2.78;;;;;;;11.51;43.05;100736.09;4994734;28;20061;-69
2024/01/16 11:00:57;;;;;;;5.75;2.15;;;;;;;11.58;44.30;100738.13;4994734;28;20088;-69
2024/01/16 11:03:37;;;;;;;5.40;2.55;;;;;;;11.66;43.73;100729.38;4994060;28;20042;-69
2024/01/16 11:06:05;;;;;;;10.60;2.95;;;;;;;11.66;44.01;100724.00;4994017;28;20072;-68
2024/01/16 11:08:33;;;;;;;6.97;2.50;;;;;;;11.57;43.27;100730.19;4978018;28;20066;-69
2024/01/16 11:10:59;;;;;;;8.57;3.17;;;;;;;11.60;43.03;100730.78;4994175;28;20037;-68
2024/01/16 11:13:25;;;;;;;3.63;2.03;;;;;;;11.65;43.92;100730.34;4994196;28;20121;-68
2024/01/16 11:15:50;;;;;;;4.10;2.63;;;;;;;11.73;43.34;100741.25;4993745;28;20118;-69
2024/01/16 11:18:16;;;;;;;5.13;2.95;;;;;;;11.80;43.88;100729.00;4993361;28;20038;-68
2024/01/16 11:20:42;;;;;;;5.82;2.60;;;;;;;11.81;42.60;100722.63;4994950;28;20043;-68
2024/01/16 11:23:09;;;;;;;5.70;2.05;;;;;;;11.86;42.71;100714.19;4977511;28;20574;-68
2024/01/16 11:25:35;;;;;;;11.30;2.47;;;;;;;11.85;43.41;100712.47;4993763;28;20041;-68